createdAt,value
2022-12-01T00:00:16.527Z,33
2022-12-01T00:02:18.652Z,32.1
2022-12-01T00:04:20.623Z,34.5
2022-12-01T00:06:22.706Z,33
2022-12-01T00:10:26.804Z,32.2
2022-12-01T00:12:28.863Z,31.9
2022-12-01T00:14:34.180Z,34.2
2022-12-01T00:16:36.347Z,32.6
2022-12-01T00:18:38.242Z,32.4
2022-12-01T00:20:40.350Z,29.5
2022-12-01T00:22:42.371Z,30.8
2022-12-01T00:24:44.428Z,31.2
2022-12-01T00:26:46.462Z,33.6
2022-12-01T00:28:51.756Z,30.8
2022-12-01T00:30:53.818Z,33.3
2022-12-01T00:32:55.890Z,32.6
2022-12-01T00:33:58.527Z,33.7
2022-12-01T00:40:04.678Z,28.9
2022-12-01T00:42:13.307Z,32.3
2022-12-01T00:44:12.041Z,32.1
2022-12-01T00:46:14.140Z,32.1
2022-12-01T00:48:16.106Z,31.6
2022-12-01T00:50:18.177Z,32.5
2022-12-01T00:52:20.226Z,32.6
2022-12-01T00:54:22.278Z,33.2
2022-12-01T00:56:27.549Z,30.4
2022-12-01T00:58:29.611Z,30.5
2022-12-01T01:00:31.682Z,35.1
2022-12-01T01:02:33.797Z,34.3
2022-12-01T01:04:35.782Z,33.7
2022-12-01T01:06:37.811Z,32.5
2022-12-01T01:08:39.875Z,31.7
2022-12-01T01:10:45.152Z,32.7
2022-12-01T01:12:47.230Z,31.2
2022-12-01T01:14:49.268Z,33.7
2022-12-01T01:16:51.394Z,30.6
2022-12-01T01:18:53.363Z,32.3
2022-12-01T01:20:55.414Z,29.5
2022-12-01T01:22:57.479Z,31.9
2022-12-01T01:25:02.779Z,33.8
2022-12-01T01:29:06.856Z,34.6
2022-12-01T01:30:09.503Z,31.3
2022-12-01T01:32:11.562Z,32.8
2022-12-01T01:44:27.116Z,34.4
2022-12-01T01:46:29.221Z,34.2
2022-12-01T01:52:38.608Z,39.7
2022-12-01T01:54:40.605Z,31.6
2022-12-01T02:00:46.789Z,35.5
2022-12-01T02:04:50.880Z,34.5
2022-12-01T02:06:56.191Z,43.1
2022-12-01T02:11:00.293Z,35.5
2022-12-01T02:15:04.431Z,37.5
2022-12-01T02:17:06.510Z,34.9
2022-12-01T02:19:08.518Z,36.2
2022-12-01T02:21:13.790Z,39.6
2022-12-01T02:23:15.832Z,37.1
2022-12-01T02:25:18.044Z,34.5
2022-12-01T02:26:20.539Z,37.3
2022-12-01T02:28:22.611Z,35.7
2022-12-01T02:30:24.688Z,35.5
2022-12-01T02:32:26.721Z,34.4
2022-12-01T02:34:31.993Z,40
2022-12-01T02:36:34.085Z,35.1
2022-12-01T02:38:36.110Z,34.4
2022-12-01T02:40:38.162Z,34.5
2022-12-01T02:42:40.202Z,33
2022-12-01T02:44:42.256Z,35.4
2022-12-01T02:46:44.315Z,29.7
2022-12-01T02:48:49.614Z,36.3
2022-12-01T02:50:51.664Z,33.3
2022-12-01T02:52:53.705Z,32.2
2022-12-01T02:54:55.728Z,32.2
2022-12-01T02:56:57.806Z,31.8
2022-12-01T02:58:59.851Z,34.8
2022-12-01T03:01:01.976Z,30.7
2022-12-01T03:03:07.160Z,35.4
2022-12-01T03:05:09.204Z,34.5
2022-12-01T03:07:11.277Z,31.8
2022-12-01T03:09:13.337Z,36
2022-12-01T03:11:15.375Z,34
2022-12-01T03:23:57.719Z,35.2
2022-12-01T03:25:59.763Z,32.5
2022-12-01T03:28:20.850Z,31.6
2022-12-01T03:30:07.102Z,32.8
2022-12-01T03:32:09.146Z,35.3
2022-12-01T03:34:11.189Z,31.1
2022-12-01T03:36:13.242Z,29.5
2022-12-01T03:38:15.329Z,30.1
2022-12-01T03:40:17.375Z,31.3
2022-12-01T03:42:19.431Z,32.3
2022-12-01T03:44:24.701Z,30.6
2022-12-01T03:46:26.837Z,31.7
2022-12-01T03:48:28.806Z,32.7
2022-12-01T03:50:32.438Z,30.8
2022-12-01T03:52:34.436Z,33
2022-12-01T03:54:36.494Z,31.3
2022-12-01T03:56:38.530Z,30.3
2022-12-01T03:58:43.836Z,30.5
2022-12-01T04:02:48.042Z,31
2022-12-01T04:04:49.976Z,29.9
2022-12-01T04:06:52.013Z,33.7
2022-12-01T04:08:54.077Z,30.8
2022-12-01T04:10:56.092Z,31.1
2022-12-01T04:13:01.371Z,32
2022-12-01T04:15:03.438Z,32.5
2022-12-01T04:17:05.436Z,33.8
2022-12-01T04:20:10.164Z,31.1
2022-12-01T04:22:12.207Z,33.7
2022-12-01T04:24:14.256Z,31.5
2022-12-01T04:26:19.501Z,35.5
2022-12-01T04:30:23.640Z,31.9
2022-12-01T04:32:25.656Z,30.8
2022-12-01T04:34:27.729Z,30.9
2022-12-01T04:36:29.776Z,34.1
2022-12-01T04:38:31.806Z,34.2
2022-12-01T04:40:37.096Z,35.3
2022-12-01T04:42:39.126Z,34.3
2022-12-01T04:44:41.162Z,34.5
2022-12-01T04:46:43.272Z,32.4
2022-12-01T04:48:45.313Z,33.3
2022-12-01T04:50:47.297Z,31
2022-12-01T04:52:49.340Z,32.5
2022-12-01T04:54:54.610Z,35.7
2022-12-01T04:56:56.645Z,36.2
2022-12-01T04:58:58.648Z,34
2022-12-01T05:01:00.829Z,34.7
2022-12-01T05:03:02.773Z,36.7
2022-12-01T05:05:04.802Z,39.9
2022-12-01T05:07:06.826Z,34.8
2022-12-01T05:09:15.618Z,34.4
2022-12-01T05:11:14.164Z,40
2022-12-01T05:13:16.211Z,35.7
2022-12-01T05:14:18.836Z,35
2022-12-01T05:16:20.929Z,36.4
2022-12-01T05:18:22.952Z,35.7
2022-12-01T05:23:03.355Z,38.1
2022-12-01T05:24:32.308Z,38.5
2022-12-01T05:26:34.351Z,34.8
2022-12-01T05:30:38.403Z,31.1
2022-12-01T05:32:40.470Z,33.8
2022-12-01T05:34:42.495Z,35.5
2022-12-01T05:36:47.777Z,38.5
2022-12-01T05:38:49.782Z,33.6
2022-12-01T05:40:51.850Z,34.8
2022-12-01T05:42:53.904Z,35
2022-12-01T05:44:55.932Z,35.6
2022-12-01T05:46:57.962Z,35.3
2022-12-01T05:48:59.996Z,37
2022-12-01T05:51:05.275Z,37.6
2022-12-01T05:53:07.314Z,35.6
2022-12-01T05:55:09.375Z,35
2022-12-01T05:57:11.420Z,34.8
2022-12-01T05:59:13.443Z,38.8
2022-12-01T06:01:15.493Z,31.7
2022-12-01T06:03:17.521Z,35
2022-12-01T06:05:22.823Z,40.4
2022-12-01T06:10:29.523Z,33.2
2022-12-01T06:12:31.560Z,36.6
2022-12-01T06:14:33.614Z,34.4
2022-12-01T06:16:35.774Z,35.8
2022-12-01T06:18:40.932Z,36.1
2022-12-01T06:24:47.063Z,39.1
2022-12-01T06:26:49.144Z,37.6
2022-12-01T06:28:51.143Z,34.8
2022-12-01T06:30:57.816Z,35.1
2022-12-01T06:32:56.280Z,34.5
2022-12-01T06:34:58.350Z,34.7
2022-12-01T06:37:00.390Z,35.7
2022-12-01T06:39:02.435Z,34.7
2022-12-01T06:41:04.450Z,35.6
2022-12-01T06:43:06.506Z,37
2022-12-01T06:45:08.609Z,32.2
2022-12-01T06:47:13.885Z,35.8
2022-12-01T06:49:15.933Z,35.5
2022-12-01T06:51:17.956Z,36.1
2022-12-01T06:53:20.004Z,36.4
2022-12-01T06:55:22.202Z,36.8
2022-12-01T06:57:24.099Z,38.2
2022-12-01T07:01:31.468Z,37.4
2022-12-01T07:03:33.446Z,35.4
2022-12-01T07:05:35.515Z,36.2
2022-12-01T07:08:04.376Z,37.9
2022-12-01T07:10:06.325Z,37.3
2022-12-01T07:12:08.389Z,38.4
2022-12-01T07:14:13.664Z,36.5
2022-12-01T07:16:15.769Z,37.5
2022-12-01T07:18:17.790Z,38.2
2022-12-01T07:20:19.802Z,36.9
2022-12-01T07:22:21.829Z,40.3
2022-12-01T07:24:23.895Z,38.5
2022-12-01T07:26:25.976Z,36
2022-12-01T07:28:31.271Z,37.7
2022-12-01T07:30:33.346Z,38.3
2022-12-01T07:32:35.343Z,35.5
2022-12-01T07:34:37.369Z,35.5
2022-12-01T07:36:39.451Z,37.6
2022-12-01T07:38:41.503Z,42.3
2022-12-01T07:40:43.515Z,37.7
2022-12-01T07:42:48.792Z,40.2
2022-12-01T07:44:50.849Z,38.4
2022-12-01T07:46:52.896Z,37.1
2022-12-01T07:48:54.937Z,40.5
2022-12-01T07:50:56.974Z,39.4
2022-12-01T07:52:59.002Z,41.2
2022-12-01T07:55:01.053Z,38.6
2022-12-01T07:59:08.381Z,39.4
2022-12-01T08:02:13.223Z,42.9
2022-12-01T08:04:15.083Z,38.3
2022-12-01T08:06:17.141Z,43
2022-12-01T08:08:19.263Z,38.9
2022-12-01T08:10:24.459Z,40
2022-12-01T08:12:26.522Z,41.1
2022-12-01T08:14:28.537Z,38.7
2022-12-01T08:16:30.582Z,38.6
2022-12-01T08:18:32.630Z,37.2
2022-12-01T08:20:34.683Z,39.8
2022-12-01T08:22:36.715Z,40.1
2022-12-01T08:24:41.973Z,41.3
2022-12-01T08:26:44.018Z,39.5
2022-12-01T08:28:46.069Z,43.2
2022-12-01T08:30:48.218Z,41.3
2022-12-01T08:32:50.147Z,44.8
2022-12-01T08:34:53.516Z,45
2022-12-01T08:36:54.263Z,45.3
2022-12-01T08:45:05.718Z,41.1
2022-12-01T08:57:21.153Z,41.9
2022-12-01T08:58:23.795Z,42.4
2022-12-01T09:00:26.186Z,39.4
2022-12-01T09:02:28.341Z,40.9
2022-12-01T09:06:35.509Z,42.6
2022-12-01T09:12:41.683Z,36.7
2022-12-01T09:14:43.715Z,38.3
2022-12-01T09:16:45.853Z,38.6
2022-12-01T09:18:47.809Z,40.6
2022-12-01T09:20:53.113Z,40.7
2022-12-01T09:22:55.167Z,42.2
2022-12-01T09:24:57.199Z,40.1
2022-12-01T09:26:59.253Z,39.1
2022-12-01T09:29:01.326Z,41.6
2022-12-01T09:31:03.441Z,43.3
2022-12-01T09:33:05.429Z,44
2022-12-01T09:35:10.724Z,40.4
2022-12-01T09:37:12.773Z,42
2022-12-01T09:39:14.843Z,38.6
2022-12-01T09:41:16.905Z,38.7
2022-12-01T09:45:21.444Z,39.6
2022-12-01T09:47:23.482Z,35
2022-12-01T09:51:30.839Z,38.7
2022-12-01T09:53:32.898Z,39.1
2022-12-01T09:54:35.542Z,39.8
2022-12-01T09:56:37.601Z,36
2022-12-01T09:58:39.670Z,36.9
2022-12-01T10:00:41.779Z,40.1
2022-12-01T10:02:47.035Z,39.9
2022-12-01T10:04:49.098Z,38.8
2022-12-01T10:06:51.147Z,36.5
2022-12-01T10:08:53.200Z,41.1
2022-12-01T10:10:55.274Z,38.8
2022-12-01T10:12:57.319Z,44.3
2022-12-01T10:14:59.376Z,40.1
2022-12-01T10:17:04.682Z,39.5
2022-12-01T10:19:06.732Z,38.7
2022-12-01T10:21:08.787Z,36.2
2022-12-01T10:23:10.839Z,40.7
2022-12-01T10:25:12.919Z,38.9
2022-12-01T10:27:14.990Z,45
2022-12-01T10:29:17.021Z,45.4
2022-12-01T10:31:22.312Z,41.6
2022-12-01T10:33:24.398Z,45.6
2022-12-01T10:35:26.458Z,44.5
2022-12-01T10:37:28.570Z,39.7
2022-12-01T10:39:30.561Z,39.9
2022-12-01T10:41:32.605Z,47.8
2022-12-01T10:43:34.696Z,47.6
2022-12-01T10:45:40.023Z,45.5
2022-12-01T10:47:42.036Z,45.8
2022-12-01T10:49:44.101Z,40.8
2022-12-01T10:52:12.974Z,41.8
2022-12-01T10:54:15.049Z,46.5
2022-12-01T10:56:17.119Z,41.5
2022-12-01T10:58:22.421Z,39.8
2022-12-01T11:00:57.555Z,43
2022-12-01T11:02:26.795Z,43.2
2022-12-01T11:04:28.619Z,40.3
2022-12-01T11:06:30.686Z,43.5
2022-12-01T11:08:32.747Z,47.4
2022-12-01T11:10:34.814Z,48
2022-12-01T11:12:40.111Z,44.5
2022-12-01T11:14:42.196Z,42.4
2022-12-01T11:16:44.321Z,39.1
2022-12-01T11:18:46.412Z,46.6
2022-12-01T11:22:50.463Z,45.6
2022-12-01T11:24:52.554Z,42.1
2022-12-01T11:26:57.875Z,43.6
2022-12-01T11:28:59.909Z,43.9
2022-12-01T11:33:04.068Z,42.5
2022-12-01T11:35:06.150Z,39.4
2022-12-01T11:46:22.480Z,37.7
2022-12-01T11:48:24.473Z,39.1
2022-12-01T11:50:26.589Z,43
2022-12-01T11:52:28.622Z,39.3
2022-12-01T11:54:33.948Z,38.3
2022-12-01T11:58:38.158Z,38.7
2022-12-01T12:08:51.779Z,37.8
2022-12-01T12:10:53.854Z,37.8
2022-12-01T12:19:02.150Z,37.8
2022-12-01T12:27:13.742Z,37.1
2022-12-01T12:29:15.850Z,37.4
2022-12-01T12:33:20.005Z,35.8
2022-12-01T12:35:22.094Z,37.6
2022-12-01T12:37:27.420Z,40.4
2022-12-01T12:39:29.520Z,37.2
2022-12-01T12:41:31.638Z,39
2022-12-01T12:42:34.284Z,35.4
2022-12-01T12:44:37.543Z,37
2022-12-01T12:46:38.527Z,30.9
2022-12-01T12:49:03.551Z,34.6
2022-12-01T12:50:45.931Z,33.2
2022-12-01T12:52:48.004Z,34.6
2022-12-01T12:54:50.130Z,36.4
2022-12-01T12:56:52.236Z,33.1
2022-12-01T12:58:54.316Z,35
2022-12-01T13:00:56.402Z,33.8
2022-12-01T13:02:58.543Z,34.6
2022-12-01T13:05:03.840Z,37.4
2022-12-01T13:07:05.946Z,37.4
2022-12-01T13:09:08.045Z,33.5
2022-12-01T13:11:10.138Z,35.4
2022-12-01T13:13:12.234Z,31
2022-12-01T13:15:14.318Z,37.4
2022-12-01T13:17:16.412Z,32.3
2022-12-01T13:21:24.023Z,34
2022-12-01T13:23:25.956Z,30.8
2022-12-01T13:25:28.043Z,31.8
2022-12-01T13:27:30.155Z,31.8
2022-12-01T13:31:34.457Z,31.9
2022-12-01T13:33:39.680Z,31.4
2022-12-01T13:35:41.767Z,30.5
2022-12-01T13:37:43.880Z,32.9
2022-12-01T13:38:46.518Z,36.1
2022-12-01T13:40:48.621Z,36.2
2022-12-01T13:42:50.725Z,31.4
2022-12-01T13:44:53.082Z,30.8
2022-12-01T13:46:58.249Z,31.2
2022-12-01T13:49:00.255Z,32.2
2022-12-01T13:51:02.351Z,29.5
2022-12-01T13:53:04.471Z,30.4
2022-12-01T13:55:06.551Z,31
2022-12-01T13:57:08.648Z,29.5
2022-12-01T13:59:10.716Z,30.9
2022-12-01T14:01:16.190Z,32.5
2022-12-01T14:03:18.247Z,31.5
2022-12-01T14:05:20.238Z,31.7
2022-12-01T14:07:22.429Z,29.9
2022-12-01T14:09:24.449Z,29.5
2022-12-01T14:11:26.547Z,33.4
2022-12-01T14:13:28.645Z,30.2
2022-12-01T14:15:33.951Z,34.1
2022-12-01T14:17:36.060Z,31.7
2022-12-01T14:19:38.134Z,29.9
2022-12-01T14:21:40.254Z,28.8
2022-12-01T14:23:42.357Z,29.1
2022-12-01T14:25:44.423Z,31.4
2022-12-01T14:27:46.503Z,31.9
2022-12-01T14:33:56.004Z,32.4
2022-12-01T14:36:24.891Z,33.1
2022-12-01T14:38:26.965Z,31.7
2022-12-01T14:40:29.053Z,33.7
2022-12-01T14:42:34.390Z,33.7
2022-12-01T14:44:36.542Z,36.9
2022-12-01T14:46:38.606Z,32.6
2022-12-01T14:48:40.624Z,30.6
2022-12-01T14:52:44.794Z,31.9
2022-12-01T14:54:47.213Z,32.8
2022-12-01T14:56:52.303Z,33.2
2022-12-01T15:00:56.347Z,35.1
2022-12-01T15:02:58.397Z,33.2
2022-12-01T15:05:00.519Z,32.2
2022-12-01T15:13:12.040Z,33.7
2022-12-01T15:15:14.118Z,33.3
2022-12-01T15:17:16.172Z,30.5
2022-12-01T15:23:22.401Z,30.7
2022-12-01T15:25:27.703Z,33
2022-12-01T15:27:29.808Z,34.2
2022-12-01T15:30:34.505Z,33.4
2022-12-01T15:32:36.602Z,34.1
2022-12-01T15:34:40.225Z,33.7
2022-12-01T15:36:42.276Z,33.1
2022-12-01T15:38:47.670Z,35.9
2022-12-01T15:42:51.804Z,33.3
2022-12-01T15:44:59.895Z,37.1
2022-12-01T15:46:55.850Z,34.6
2022-12-01T15:48:57.962Z,34.5
2022-12-01T15:51:00.002Z,35.4
2022-12-01T15:53:05.308Z,39.8
2022-12-01T15:55:07.409Z,36.8
2022-12-01T15:57:09.480Z,35.4
2022-12-01T15:59:11.549Z,36.4
2022-12-01T16:01:13.669Z,42.3
2022-12-01T16:03:15.797Z,33.4
2022-12-01T16:05:17.778Z,34.9
2022-12-01T16:09:25.133Z,36.5
2022-12-01T16:11:27.202Z,34.8
2022-12-01T16:17:33.431Z,35.5
2022-12-01T16:19:35.510Z,38
2022-12-01T16:23:42.887Z,34.9
2022-12-01T16:25:44.994Z,36.1
2022-12-01T16:28:49.726Z,33.7
2022-12-01T16:37:01.239Z,33.7
2022-12-01T16:43:07.479Z,36.9
2022-12-01T16:45:09.595Z,34.4
2022-12-01T16:47:11.657Z,34.7
2022-12-01T16:49:16.961Z,38.2
2022-12-01T16:51:29.451Z,36.8
2022-12-01T16:57:25.255Z,34.1
2022-12-01T17:05:36.766Z,40.6
2022-12-01T17:07:38.968Z,47.2
2022-12-01T17:09:40.916Z,35.5
2022-12-01T17:11:42.960Z,38.4
2022-12-01T17:13:45.055Z,47.3
2022-12-01T17:15:47.164Z,41.9
2022-12-01T17:17:52.426Z,33.8
2022-12-01T17:19:54.514Z,36.8
2022-12-01T17:21:56.577Z,36.4
2022-12-01T17:22:59.211Z,62.5
2022-12-01T17:25:01.308Z,37.8
2022-12-01T17:27:03.391Z,40.5
2022-12-01T17:29:05.441Z,43.5
2022-12-01T17:31:10.836Z,46.3
2022-12-01T17:33:12.800Z,43.2
2022-12-01T17:35:14.869Z,81.2
2022-12-01T17:37:20.890Z,61.1
2022-12-01T17:39:19.003Z,40.1
2022-12-01T17:41:21.094Z,39.2
2022-12-01T17:45:28.461Z,37.4
2022-12-01T17:47:30.517Z,60.9
2022-12-01T17:49:32.590Z,39.7
2022-12-01T17:51:34.628Z,47.4
2022-12-01T17:53:36.699Z,43.5
2022-12-01T17:55:38.751Z,44
2022-12-01T17:57:40.822Z,36.7
2022-12-01T17:59:46.117Z,35.2
2022-12-01T18:01:48.396Z,32
2022-12-01T18:03:50.247Z,35.1
2022-12-01T18:05:52.309Z,32.8
2022-12-01T18:07:54.451Z,32.8
2022-12-01T18:09:56.412Z,33.3
2022-12-01T18:11:58.506Z,35.6
2022-12-01T18:14:03.790Z,32.4
2022-12-01T18:16:05.962Z,34.4
2022-12-01T18:18:07.912Z,31.4
2022-12-01T18:20:36.812Z,35.8
2022-12-01T18:22:38.912Z,32.8
2022-12-01T18:24:40.930Z,34.8
2022-12-01T18:26:46.237Z,36.1
2022-12-01T18:32:52.443Z,34.4
2022-12-01T18:34:54.502Z,33.9
2022-12-01T18:36:56.549Z,31.5
2022-12-01T18:38:58.614Z,31.2
2022-12-01T18:41:03.923Z,34.7
2022-12-01T18:43:05.995Z,34.4
2022-12-01T18:45:08.053Z,36.4
2022-12-01T18:47:10.293Z,35.9
2022-12-01T18:49:12.176Z,35.3
2022-12-01T18:51:14.250Z,35.4
2022-12-01T18:53:16.326Z,33.8
2022-12-01T18:55:21.591Z,35.9
2022-12-01T18:57:23.672Z,38.1
2022-12-01T18:59:25.745Z,36.8
2022-12-01T19:01:27.804Z,39.6
2022-12-01T19:14:46.037Z,38.3
2022-12-01T19:16:48.142Z,45.6
2022-12-01T19:18:50.324Z,48.1
2022-12-01T19:20:52.214Z,44.1
2022-12-01T19:22:57.485Z,53.9
2022-12-01T19:24:59.540Z,46.3
2022-12-01T19:27:01.628Z,38.2
2022-12-01T19:29:03.679Z,41.2
2022-12-01T19:31:05.764Z,45.6
2022-12-01T19:33:07.772Z,42.3
2022-12-01T19:35:09.853Z,45
2022-12-01T19:37:15.113Z,40.3
2022-12-01T19:45:23.329Z,44.2
2022-12-01T19:47:25.387Z,42.8
2022-12-01T19:49:27.464Z,38
2022-12-01T19:51:32.717Z,41.9
2022-12-01T19:53:34.792Z,41
2022-12-01T19:55:36.848Z,43.1
2022-12-01T19:57:38.915Z,44.1
2022-12-01T19:59:40.959Z,43.4
2022-12-01T20:01:43.195Z,41.8
2022-12-01T20:03:45.058Z,44.7
2022-12-01T20:05:50.368Z,43.6
2022-12-01T20:07:52.474Z,44.6
2022-12-01T20:09:54.480Z,44.4
2022-12-01T20:10:57.112Z,42.8
2022-12-01T20:12:59.214Z,43.3
2022-12-01T20:15:01.254Z,44.9
2022-12-01T20:17:03.334Z,41
2022-12-01T20:19:08.582Z,43.2
2022-12-01T20:27:16.746Z,39.5
2022-12-01T20:31:20.929Z,43.5
2022-12-01T20:33:26.150Z,46.7
2022-12-01T20:35:28.218Z,45
2022-12-01T20:37:30.265Z,43.6
2022-12-01T20:39:32.323Z,44.9
2022-12-01T20:43:36.424Z,44.3
2022-12-01T20:45:38.494Z,42.7
2022-12-01T20:49:45.822Z,45.3
2022-12-01T20:57:54.009Z,42.7
2022-12-01T20:59:56.045Z,45.6
2022-12-01T21:02:01.435Z,48.8
2022-12-01T21:04:03.379Z,47.5
2022-12-01T21:06:05.447Z,49.1
2022-12-01T21:07:08.088Z,46.9
2022-12-01T21:09:10.125Z,47.6
2022-12-01T21:11:12.151Z,44.3
2022-12-01T21:13:14.208Z,50.8
2022-12-01T21:15:19.473Z,45.8
2022-12-01T21:17:21.533Z,45.8
2022-12-01T21:19:23.612Z,45
2022-12-01T21:21:25.625Z,47.6
2022-12-01T21:23:27.660Z,43.2
2022-12-01T21:25:29.716Z,42.8
2022-12-01T21:27:33.315Z,46.1
2022-12-01T21:29:38.593Z,45.4
2022-12-01T21:31:40.564Z,45.6
2022-12-01T21:33:42.623Z,46.6
2022-12-01T21:37:46.723Z,46.9
2022-12-01T21:39:48.748Z,46.7
2022-12-01T21:41:50.786Z,46.7
2022-12-01T21:43:56.047Z,47
2022-12-01T21:45:58.188Z,47.4
2022-12-01T21:48:00.171Z,48.7
2022-12-01T21:50:02.225Z,46.7
2022-12-01T21:52:04.218Z,45.6
2022-12-01T21:54:06.274Z,46.5
2022-12-01T21:56:08.312Z,47.7
2022-12-01T21:58:13.594Z,48.7
2022-12-01T22:00:15.598Z,46.6
2022-12-01T22:02:17.691Z,48.4
2022-12-01T22:04:46.495Z,50.7
2022-12-01T22:06:48.535Z,44.4
2022-12-01T22:08:50.578Z,46.7
2022-12-01T22:12:57.893Z,45.3
2022-12-01T22:14:59.950Z,49.6
2022-12-01T22:17:01.959Z,45.5
2022-12-01T22:23:08.039Z,45.1
2022-12-01T22:25:13.314Z,49.5
2022-12-01T22:29:17.379Z,48.8
2022-12-01T22:31:19.480Z,46.3
2022-12-01T22:33:21.438Z,46.5
2022-12-01T22:35:23.479Z,46.1
2022-12-01T22:37:25.507Z,46.6
2022-12-01T22:39:30.758Z,49.3
2022-12-01T22:41:32.784Z,51.5
2022-12-01T22:43:34.799Z,44.5
2022-12-01T22:47:38.869Z,46.5
2022-12-01T22:49:40.902Z,48.4
2022-12-01T22:51:42.908Z,47.9
2022-12-01T22:53:48.172Z,47
2022-12-01T22:55:50.201Z,46.2
2022-12-01T22:57:52.262Z,45.1
2022-12-01T23:02:59.013Z,44.1
2022-12-01T23:05:00.914Z,45.3
2022-12-01T23:07:06.174Z,44.8
2022-12-01T23:09:08.211Z,45.1
2022-12-01T23:11:10.215Z,46.6
2022-12-01T23:15:14.297Z,49.2
2022-12-01T23:17:16.280Z,46
2022-12-01T23:19:18.318Z,45.8
2022-12-01T23:21:23.556Z,50.9
2022-12-01T23:23:25.584Z,43.3
2022-12-01T23:25:27.619Z,44.9
2022-12-01T23:27:29.623Z,46.9
2022-12-01T23:29:31.674Z,40.3
2022-12-01T23:31:33.757Z,43.7
2022-12-01T23:33:35.680Z,45.6
2022-12-01T23:35:40.945Z,45.4
2022-12-01T23:37:42.971Z,41.3
2022-12-01T23:39:44.990Z,42.7
2022-12-01T23:41:47.016Z,46.9
2022-12-01T23:43:49.056Z,42.3
2022-12-01T23:45:51.064Z,44.8
2022-12-01T23:47:53.080Z,46.2
2022-12-01T23:49:58.481Z,43.4
2022-12-01T23:52:00.342Z,44.1
2022-12-01T23:54:02.364Z,40.6
2022-12-01T23:55:04.980Z,46.7
2022-12-01T23:57:07.023Z,44.4
2022-12-01T23:59:09.057Z,40.9
